createdAt,value
2022-10-19T00:00:02.903Z,47.82
2022-10-19T00:03:08.090Z,48.10
2022-10-19T00:06:16.247Z,48.42
2022-10-19T00:09:20.922Z,48.95
2022-10-19T00:12:25.600Z,49.39
2022-10-19T00:15:28.904Z,48.88
2022-10-19T00:18:32.148Z,48.70
2022-10-19T00:21:35.895Z,49.02
2022-10-19T00:24:39.109Z,49.13
2022-10-19T00:27:43.697Z,49.30
2022-10-19T00:30:46.959Z,48.80
2022-10-19T00:33:52.381Z,48.67
2022-10-19T00:36:55.694Z,49.08
2022-10-19T00:39:59.060Z,49.89
2022-10-19T00:43:03.667Z,48.51
2022-10-19T00:46:06.987Z,48.19
2022-10-19T00:49:14.281Z,47.68
2022-10-19T00:52:20.859Z,48.07
2022-10-19T00:55:24.151Z,47.71
2022-10-19T00:58:29.183Z,47.61
2022-10-19T01:01:33.164Z,47.50
2022-10-19T01:04:38.998Z,47.44
2022-10-19T01:07:42.575Z,47.74
2022-10-19T01:10:53.682Z,48.22
2022-10-19T01:14:08.631Z,47.79
2022-10-19T01:17:24.491Z,47.71
2022-10-19T01:21:03.766Z,48.16
2022-10-19T01:24:29.028Z,48.50
2022-10-19T01:28:03.462Z,48.86
2022-10-19T01:31:20.475Z,49.28
2022-10-19T01:34:30.676Z,49.44
2022-10-19T01:37:39.691Z,48.95
2022-10-19T01:40:50.533Z,49.65
2022-10-19T01:44:00.745Z,49.89
2022-10-19T01:47:10.137Z,49.47
2022-10-19T01:50:19.331Z,49.07
2022-10-19T01:53:24.511Z,49.40
2022-10-19T01:56:30.245Z,49.15
2022-10-19T01:59:35.296Z,49.00
2022-10-19T02:02:46.819Z,49.17
2022-10-19T02:05:52.453Z,49.53
2022-10-19T02:08:55.925Z,49.39
2022-10-19T02:12:03.776Z,49.28
2022-10-19T02:15:12.547Z,49.81
2022-10-19T02:18:21.153Z,49.66
2022-10-19T02:21:25.094Z,49.83
2022-10-19T02:24:28.400Z,48.93
2022-10-19T02:27:31.972Z,49.04
2022-10-19T02:30:35.333Z,49.53
2022-10-19T02:33:40.376Z,49.37
2022-10-19T02:36:43.648Z,49.60
2022-10-19T02:39:47.013Z,49.42
2022-10-19T02:42:55.525Z,49.25
2022-10-19T02:46:03.592Z,49.30
2022-10-19T02:49:10.664Z,49.40
2022-10-19T02:52:15.545Z,49.92
2022-10-19T02:55:18.995Z,49.22
2022-10-19T02:58:22.272Z,49.12
2022-10-19T03:01:25.938Z,49.40
2022-10-19T03:04:30.566Z,49.79
2022-10-19T03:07:34.033Z,49.65
2022-10-19T03:10:37.431Z,49.32
2022-10-19T03:13:42.263Z,49.66
2022-10-19T03:16:45.588Z,49.31
2022-10-19T03:19:50.203Z,49.37
2022-10-19T03:26:01.569Z,49.14
2022-10-19T03:29:05.295Z,49.42
2022-10-19T03:32:08.566Z,49.57
2022-10-19T03:35:13.184Z,49.42
2022-10-19T03:38:16.409Z,50.31
2022-10-19T03:41:20.560Z,49.97
2022-10-19T03:44:23.726Z,50.26
2022-10-19T03:47:26.981Z,50.24
2022-10-19T03:50:31.588Z,49.90
2022-10-19T03:53:34.930Z,50.18
2022-10-19T03:56:38.211Z,49.87
2022-10-19T03:59:41.538Z,49.58
2022-10-19T04:02:44.769Z,50.07
2022-10-19T04:05:49.401Z,49.82
2022-10-19T04:08:52.697Z,49.79
2022-10-19T04:11:55.886Z,49.50
2022-10-19T04:14:59.060Z,49.75
2022-10-19T04:18:02.467Z,50.68
2022-10-19T04:21:07.579Z,52.39
2022-10-19T04:24:12.899Z,51.42
2022-10-19T04:27:16.060Z,50.66
2022-10-19T04:30:19.377Z,51.42
2022-10-19T04:33:22.656Z,51.40
2022-10-19T04:36:27.427Z,50.23
2022-10-19T04:39:30.642Z,51.92
2022-10-19T04:42:33.827Z,52.04
2022-10-19T04:45:37.298Z,50.90
2022-10-19T04:48:41.729Z,51.33
2022-10-19T04:51:46.339Z,51.22
2022-10-19T04:54:49.597Z,51.76
2022-10-19T04:57:52.854Z,51.07
2022-10-19T05:00:56.202Z,51.20
2022-10-19T05:04:00.997Z,51.17
2022-10-19T05:07:05.918Z,50.83
2022-10-19T05:10:10.807Z,50.65
2022-10-19T05:13:14.045Z,50.93
2022-10-19T05:16:20.882Z,51.29
2022-10-19T05:19:24.070Z,51.09
2022-10-19T05:22:28.747Z,50.26
2022-10-19T05:25:31.996Z,50.35
2022-10-19T05:28:36.051Z,49.87
2022-10-19T05:31:39.571Z,51.50
2022-10-19T05:34:43.044Z,50.24
2022-10-19T05:37:47.599Z,49.76
2022-10-19T05:40:53.608Z,50.50
2022-10-19T05:43:58.807Z,49.40
2022-10-19T05:47:02.299Z,48.60
2022-10-19T05:50:06.189Z,48.23
2022-10-19T05:53:10.814Z,47.63
2022-10-19T05:56:17.174Z,45.92
2022-10-19T05:59:24.793Z,46.55
2022-10-19T06:02:28.037Z,45.54
2022-10-19T06:05:31.209Z,44.71
2022-10-19T06:08:36.146Z,45.11
2022-10-19T06:11:41.915Z,43.58
2022-10-19T06:17:53.289Z,43.43
2022-10-19T06:20:56.530Z,43.93
2022-10-19T06:24:03.500Z,43.34
2022-10-19T06:27:07.127Z,41.78
2022-10-19T06:30:11.465Z,41.33
2022-10-19T06:33:14.641Z,41.20
2022-10-19T06:36:20.233Z,41.04
2022-10-19T06:39:24.839Z,41.32
2022-10-19T06:42:27.995Z,40.26
2022-10-19T06:45:35.700Z,40.80
2022-10-19T06:48:39.459Z,39.26
2022-10-19T06:51:42.922Z,39.45
2022-10-19T06:54:47.578Z,38.84
2022-10-19T06:57:50.847Z,38.97
2022-10-19T07:00:58.359Z,37.86
2022-10-19T07:04:02.765Z,37.92
2022-10-19T07:07:06.614Z,37.62
2022-10-19T07:10:11.587Z,38.17
2022-10-19T07:13:14.811Z,37.35
2022-10-19T07:16:21.513Z,37.64
2022-10-19T07:19:29.927Z,36.50
2022-10-19T07:22:33.218Z,36.47
2022-10-19T07:25:38.893Z,36.50
2022-10-19T07:28:44.207Z,36.14
2022-10-19T07:31:47.448Z,36.38
2022-10-19T07:34:50.626Z,35.78
2022-10-19T07:37:53.857Z,35.63
2022-10-19T07:41:07.682Z,35.04
2022-10-19T07:44:14.780Z,35.10
2022-10-19T07:47:19.431Z,34.41
2022-10-19T07:50:24.650Z,34.19
2022-10-19T07:53:27.875Z,33.53
2022-10-19T07:56:33.254Z,33.44
2022-10-19T07:59:36.662Z,33.48
2022-10-19T08:02:59.880Z,33.89
2022-10-19T08:06:03.663Z,33.64
2022-10-19T08:09:07.518Z,33.48
2022-10-19T08:12:15.234Z,33.28
2022-10-19T08:15:19.235Z,32.91
2022-10-19T08:18:23.226Z,33.36
2022-10-19T08:21:28.692Z,33.17
2022-10-19T08:24:32.584Z,33.11
2022-10-19T08:27:37.191Z,32.94
2022-10-19T08:30:43.096Z,33.17
2022-10-19T08:33:46.568Z,32.47
2022-10-19T08:36:51.690Z,32.39
2022-10-19T08:39:55.008Z,31.76
2022-10-19T08:43:05.859Z,31.42
2022-10-19T08:46:18.758Z,31.28
2022-10-19T08:49:26.251Z,30.79
2022-10-19T08:52:34.632Z,31.34
2022-10-19T08:55:45.869Z,31.14
2022-10-19T08:59:04.535Z,30.98
2022-10-19T09:02:17.607Z,31.42
2022-10-19T09:05:29.799Z,30.80
2022-10-19T09:08:35.121Z,30.39
2022-10-19T09:11:44.498Z,29.44
2022-10-19T09:14:57.027Z,29.53
2022-10-19T09:18:00.379Z,30.93
2022-10-19T09:21:08.539Z,30.17
2022-10-19T09:24:28.042Z,30.05
2022-10-19T09:27:36.759Z,29.18
2022-10-19T09:30:44.055Z,28.89
2022-10-19T09:33:53.336Z,28.94
2022-10-19T09:36:59.555Z,28.63
2022-10-19T09:40:02.921Z,27.95
2022-10-19T09:43:19.587Z,27.32
2022-10-19T09:46:37.033Z,28.16
2022-10-19T09:49:43.627Z,27.81
2022-10-19T09:52:48.405Z,27.25
2022-10-19T09:55:59.528Z,27.35
2022-10-19T09:59:02.741Z,27.23
2022-10-19T10:02:17.673Z,26.95
2022-10-19T10:05:21.847Z,26.47
2022-10-19T10:08:27.819Z,26.39
2022-10-19T10:11:34.359Z,26.06
2022-10-19T10:14:39.908Z,26.25
2022-10-19T10:17:48.415Z,25.64
2022-10-19T10:21:06.791Z,26.22
2022-10-19T10:24:18.873Z,26.05
2022-10-19T10:27:32.586Z,27.01
2022-10-19T10:30:38.501Z,27.04
2022-10-19T10:33:45.362Z,26.74
2022-10-19T10:36:52.740Z,26.53
2022-10-19T10:40:01.785Z,26.94
2022-10-19T10:43:10.418Z,26.87
2022-10-19T10:46:20.657Z,27.11
2022-10-19T10:49:28.672Z,26.53
2022-10-19T10:52:32.626Z,26.44
2022-10-19T10:55:36.210Z,25.64
2022-10-19T10:58:47.915Z,25.91
2022-10-19T11:02:00.293Z,26.44
2022-10-19T11:05:11.887Z,26.01
2022-10-19T11:08:22.594Z,25.39
2022-10-19T11:11:29.259Z,25.84
2022-10-19T11:14:40.204Z,25.63
2022-10-19T11:17:58.553Z,25.33
2022-10-19T11:21:10.865Z,24.99
2022-10-19T11:24:24.093Z,25.06
2022-10-19T11:27:39.024Z,25.34
2022-10-19T11:30:56.780Z,25.43
2022-10-19T11:34:05.585Z,24.53
2022-10-19T11:37:21.373Z,24.38
2022-10-19T11:40:31.473Z,24.49
2022-10-19T11:43:41.082Z,24.15
2022-10-19T11:46:54.119Z,24.71
2022-10-19T11:50:11.219Z,24.54
2022-10-19T11:53:24.790Z,24.23
2022-10-19T11:56:58.232Z,24.29
2022-10-19T12:00:14.770Z,24.23
2022-10-19T12:03:52.416Z,24.10
2022-10-19T12:07:03.831Z,23.84
2022-10-19T12:10:19.609Z,23.31
2022-10-19T12:13:29.884Z,24.00
2022-10-19T12:16:39.373Z,23.84
2022-10-19T12:19:47.981Z,23.89
2022-10-19T12:22:51.857Z,24.22
2022-10-19T12:25:58.908Z,23.93
2022-10-19T12:29:06.610Z,24.39
2022-10-19T12:32:15.292Z,23.89
2022-10-19T12:35:31.735Z,24.63
2022-10-19T12:38:49.446Z,23.86
2022-10-19T12:42:04.602Z,24.19
2022-10-19T12:45:19.847Z,23.83
2022-10-19T12:48:25.186Z,23.61
2022-10-19T12:51:28.507Z,23.80
2022-10-19T12:54:34.071Z,23.27
2022-10-19T12:57:43.274Z,23.90
2022-10-19T13:00:59.451Z,23.42
2022-10-19T13:04:11.915Z,22.82
2022-10-19T13:07:19.472Z,24.09
2022-10-19T13:10:25.765Z,24.14
2022-10-19T13:14:02.853Z,24.01
2022-10-19T13:17:06.133Z,23.96
2022-10-19T13:20:54.588Z,23.99
2022-10-19T13:24:21.792Z,23.71
2022-10-19T13:27:37.107Z,23.94
2022-10-19T13:31:08.165Z,23.55
2022-10-19T13:34:16.752Z,23.02
2022-10-19T13:37:20.605Z,23.43
2022-10-19T13:40:24.960Z,23.71
2022-10-19T13:43:31.290Z,23.70
2022-10-19T13:46:53.694Z,23.79
2022-10-19T13:50:20.307Z,24.27
2022-10-19T13:53:33.259Z,23.93
2022-10-19T13:56:57.302Z,24.24
2022-10-19T14:00:15.258Z,24.34
2022-10-19T14:03:30.197Z,24.51
2022-10-19T14:06:39.957Z,24.06
2022-10-19T14:10:02.835Z,24.68
2022-10-19T14:13:13.006Z,24.49
2022-10-19T14:16:20.860Z,24.92
2022-10-19T14:19:29.693Z,25.44
2022-10-19T14:22:34.542Z,24.96
2022-10-19T14:25:38.876Z,24.60
2022-10-19T14:28:43.702Z,24.83
2022-10-19T14:31:52.156Z,24.96
2022-10-19T14:35:06.705Z,25.66
2022-10-19T14:38:19.915Z,25.88
2022-10-19T14:44:43.233Z,25.84
2022-10-19T14:48:01.279Z,26.13
2022-10-19T14:51:10.714Z,26.52
2022-10-19T14:54:29.832Z,27.07
2022-10-19T14:57:36.472Z,27.39
2022-10-19T15:00:40.278Z,27.93
2022-10-19T15:03:45.407Z,27.91
2022-10-19T15:06:50.259Z,28.32
2022-10-19T15:09:57.729Z,28.61
2022-10-19T15:13:04.073Z,29.49
2022-10-19T15:16:07.723Z,29.82
2022-10-19T15:19:26.259Z,30.45
2022-10-19T15:22:48.744Z,31.00
2022-10-19T15:26:00.372Z,31.96
2022-10-19T15:29:13.015Z,32.26
2022-10-19T15:32:17.787Z,32.10
2022-10-19T15:35:25.220Z,32.74
2022-10-19T15:38:32.399Z,33.17
2022-10-19T15:41:37.291Z,34.03
2022-10-19T15:44:43.692Z,34.09
2022-10-19T15:48:28.357Z,35.96
2022-10-19T15:51:43.954Z,35.24
2022-10-19T15:54:48.811Z,36.03
2022-10-19T15:58:00.245Z,35.31
2022-10-19T16:01:03.782Z,34.09
2022-10-19T16:04:08.469Z,36.10
2022-10-19T16:07:17.520Z,36.40
2022-10-19T16:10:23.105Z,36.79
2022-10-19T16:13:26.337Z,36.69
2022-10-19T16:16:33.116Z,36.82
2022-10-19T16:19:37.722Z,36.77
2022-10-19T16:22:41.068Z,37.45
2022-10-19T16:25:44.364Z,38.04
2022-10-19T16:28:48.769Z,39.06
2022-10-19T16:31:52.433Z,39.01
2022-10-19T16:34:57.150Z,38.49
2022-10-19T16:38:00.599Z,38.59
2022-10-19T16:41:04.767Z,38.24
2022-10-19T16:44:08.010Z,39.20
2022-10-19T16:47:14.166Z,39.04
2022-10-19T16:50:19.005Z,39.38
2022-10-19T16:53:22.259Z,39.23
2022-10-19T16:56:27.118Z,39.41
2022-10-19T16:59:30.274Z,39.11
2022-10-19T17:02:33.946Z,39.87
2022-10-19T17:05:41.535Z,39.76
2022-10-19T17:09:23.357Z,40.28
2022-10-19T17:12:09.048Z,41.12
2022-10-19T17:18:36.807Z,41.61
2022-10-19T17:21:42.544Z,42.09
2022-10-19T17:24:47.365Z,41.86
2022-10-19T17:27:51.597Z,42.20
2022-10-19T17:30:55.336Z,41.97
2022-10-19T17:34:02.093Z,42.80
2022-10-19T17:37:06.952Z,43.71
2022-10-19T17:40:11.364Z,42.97
2022-10-19T17:43:14.684Z,42.91
2022-10-19T17:46:19.030Z,44.87
2022-10-19T17:49:22.267Z,44.12
2022-10-19T17:52:27.247Z,44.70
2022-10-19T17:55:30.455Z,44.46
2022-10-19T17:58:39.028Z,45.14
2022-10-19T18:01:45.937Z,44.19
2022-10-19T18:04:51.950Z,44.47
2022-10-19T18:07:56.502Z,44.69
2022-10-19T18:11:00.596Z,44.43
2022-10-19T18:14:04.578Z,43.07
2022-10-19T18:17:07.846Z,42.13
2022-10-19T18:20:12.317Z,41.90
2022-10-19T18:23:17.032Z,42.50
2022-10-19T18:26:22.477Z,42.67
2022-10-19T18:29:27.331Z,40.15
2022-10-19T18:32:30.501Z,39.70
2022-10-19T18:35:36.929Z,38.73
2022-10-19T18:38:41.586Z,38.81
2022-10-19T18:41:45.137Z,38.10
2022-10-19T18:44:48.408Z,38.24
2022-10-19T18:47:51.681Z,38.33
2022-10-19T18:50:55.421Z,38.56
2022-10-19T18:54:00.168Z,38.44
2022-10-19T18:57:03.447Z,38.76
2022-10-19T19:00:07.764Z,39.09
2022-10-19T19:03:11.485Z,39.55
2022-10-19T19:06:16.517Z,38.73
2022-10-19T19:09:21.310Z,38.87
2022-10-19T19:12:24.757Z,39.42
2022-10-19T19:15:28.077Z,39.15
2022-10-19T19:18:33.735Z,39.41
2022-10-19T19:21:38.376Z,39.32
2022-10-19T19:24:44.932Z,39.50
2022-10-19T19:27:48.173Z,39.61
2022-10-19T19:30:51.422Z,40.10
2022-10-19T19:33:54.994Z,40.47
2022-10-19T19:36:58.205Z,40.85
2022-10-19T19:40:02.910Z,40.54
2022-10-19T19:43:06.095Z,40.31
2022-10-19T19:46:12.762Z,39.99
2022-10-19T19:49:19.005Z,40.13
2022-10-19T19:52:22.227Z,40.44
2022-10-19T19:55:27.260Z,41.13
2022-10-19T19:58:30.770Z,41.12
2022-10-19T20:01:34.504Z,40.47
2022-10-19T20:04:37.982Z,40.14
2022-10-19T20:07:41.190Z,39.75
2022-10-19T20:10:45.767Z,39.91
2022-10-19T20:13:49.026Z,39.79
2022-10-19T20:16:52.264Z,40.01
2022-10-19T20:19:55.451Z,39.72
2022-10-19T20:22:58.661Z,39.98
2022-10-19T20:26:03.491Z,39.53
2022-10-19T20:29:06.772Z,39.35
2022-10-19T20:32:10.003Z,39.55
2022-10-19T20:35:13.251Z,39.87
2022-10-19T20:38:16.438Z,40.38
2022-10-19T20:41:24.711Z,40.32
2022-10-19T20:44:27.883Z,40.76
2022-10-19T20:47:31.109Z,40.87
2022-10-19T20:50:34.431Z,40.54
2022-10-19T20:53:37.689Z,41.04
2022-10-19T20:56:43.601Z,41.59
2022-10-19T20:59:46.820Z,41.91
2022-10-19T21:02:50.042Z,42.03
2022-10-19T21:05:53.235Z,42.54
2022-10-19T21:08:57.724Z,42.81
2022-10-19T21:12:03.362Z,43.33
2022-10-19T21:15:07.094Z,43.54
2022-10-19T21:18:10.289Z,43.89
2022-10-19T21:21:18.389Z,43.63
2022-10-19T21:24:23.424Z,43.89
2022-10-19T21:27:28.083Z,43.35
2022-10-19T21:30:31.268Z,43.09
2022-10-19T21:33:34.566Z,42.79
2022-10-19T21:36:37.766Z,42.90
2022-10-19T21:39:40.922Z,42.77
2022-10-19T21:42:45.944Z,42.58
2022-10-19T21:45:49.147Z,42.91
2022-10-19T21:48:53.185Z,42.71
2022-10-19T21:51:56.476Z,42.52
2022-10-19T21:54:59.662Z,42.98
2022-10-19T21:58:04.714Z,42.90
2022-10-19T22:01:08.878Z,42.82
2022-10-19T22:04:14.891Z,43.26
2022-10-19T22:07:18.077Z,43.54
2022-10-19T22:10:21.295Z,43.64
2022-10-19T22:13:25.986Z,43.40
2022-10-19T22:16:30.371Z,43.50
2022-10-19T22:19:33.611Z,43.26
2022-10-19T22:22:36.980Z,43.39
2022-10-19T22:25:40.426Z,43.39
2022-10-19T22:28:45.252Z,43.78
2022-10-19T22:31:48.357Z,43.80
2022-10-19T22:34:51.401Z,43.53
2022-10-19T22:37:54.477Z,43.49
2022-10-19T22:40:57.501Z,43.69
2022-10-19T22:44:02.123Z,43.34
2022-10-19T22:47:05.178Z,43.35
2022-10-19T22:50:11.870Z,43.40
2022-10-19T22:53:15.122Z,43.47
2022-10-19T22:56:18.160Z,43.69
2022-10-19T22:59:22.558Z,43.64
2022-10-19T23:02:25.647Z,43.77
2022-10-19T23:05:28.654Z,43.63
2022-10-19T23:08:31.792Z,43.99
2022-10-19T23:11:34.858Z,43.89
2022-10-19T23:14:39.294Z,43.87
2022-10-19T23:17:42.310Z,44.12
2022-10-19T23:20:54.527Z,43.86
2022-10-19T23:23:57.587Z,44.07
2022-10-19T23:27:00.704Z,44.17
2022-10-19T23:30:06.126Z,43.99
2022-10-19T23:33:09.166Z,44.54
2022-10-19T23:36:15.182Z,44.40
2022-10-19T23:39:19.375Z,44.47
2022-10-19T23:42:22.426Z,44.58
2022-10-19T23:45:26.938Z,44.55
2022-10-19T23:48:30.229Z,44.66
2022-10-19T23:51:33.342Z,45.32
2022-10-19T23:54:36.379Z,45.47
2022-10-19T23:57:39.467Z,45.68
